Time;durP1;ratioP1;P1;durP2;ratioP2;P2;SDS_P1;SDS_P2;PMS_P1;PMS_P2;Temp;Humidity;BMP_temperature;BMP_pressure;BME280_temperature;BME280_humidity;BME280_pressure;Samples;Min_cycle;Max_cycle;Signal;HPM_P1;HPM_P2
2022/05/11 00:01:39;;;;;;;5.15;4.05;;;14.20;99.90;;;;;;4974910;28;20736;-64
2022/05/11 00:04:09;;;;;;;4.72;4.22;;;14.20;99.90;;;;;;4974361;28;20214;-64
2022/05/11 00:06:37;;;;;;;3.95;3.65;;;14.20;99.90;;;;;;4974529;28;20902;-64
2022/05/11 00:09:06;;;;;;;15.60;4.68;;;14.30;99.90;;;;;;4973459;28;20042;-64
2022/05/11 00:11:33;;;;;;;12.35;3.78;;;14.30;99.90;;;;;;4992936;28;20329;-64
2022/05/11 00:14:01;;;;;;;4.82;3.72;;;14.30;99.90;;;;;;4993937;28;20069;-64
2022/05/11 00:16:28;;;;;;;4.85;3.75;;;14.30;99.90;;;;;;4994035;28;20066;-63
2022/05/11 00:18:55;;;;;;;4.45;3.50;;;14.20;99.90;;;;;;4991621;28;20050;-64
2022/05/11 00:21:23;;;;;;;6.57;3.75;;;14.20;99.90;;;;;;4993747;28;20113;-64
2022/05/11 00:23:51;;;;;;;4.22;3.83;;;14.20;99.90;;;;;;4994154;28;20445;-64
2022/05/11 00:26:18;;;;;;;4.88;4.38;;;14.20;99.90;;;;;;4993670;28;20048;-64
2022/05/11 00:28:45;;;;;;;9.50;3.92;;;14.10;99.90;;;;;;4993491;28;20046;-64
2022/05/11 00:31:12;;;;;;;4.80;4.07;;;14.20;99.90;;;;;;4994145;28;20112;-64
2022/05/11 00:33:39;;;;;;;5.13;4.32;;;14.10;99.90;;;;;;4993616;28;20779;-63
2022/05/11 00:36:10;;;;;;;;;;;14.10;99.90;;;;;;4995105;28;20128;-64
2022/05/11 00:38:37;;;;;;;9.32;4.55;;;14.10;99.90;;;;;;4992718;28;20511;-64
2022/05/11 00:41:05;;;;;;;6.05;4.43;;;14.00;99.90;;;;;;4982651;28;20053;-63
2022/05/11 00:43:32;;;;;;;6.53;4.68;;;14.00;99.90;;;;;;4980230;28;20116;-63
2022/05/11 00:46:05;;;;;;;;;;;14.00;99.90;;;;;;4994741;28;20042;-63
2022/05/11 00:51:17;;;;;;;6.60;4.05;;;13.90;99.90;;;;;;4993727;28;20477;-63
2022/05/11 00:53:47;;;;;;;;;;;13.80;99.90;;;;;;5009707;28;20705;-63
2022/05/11 00:56:15;;;;;;;7.30;4.30;;;13.80;99.90;;;;;;4994093;28;19926;-63
2022/05/11 00:58:50;;;;;;;4.63;3.95;;;13.80;99.90;;;;;;4994661;28;20112;-63
2022/05/11 01:01:17;;;;;;;7.78;5.43;;;13.80;99.90;;;;;;5001484;28;20054;-63
2022/05/11 01:04:08;;;;;;;7.97;4.95;;;13.70;99.90;;;;;;4994145;28;20045;-63
2022/05/11 01:06:36;;;;;;;7.60;4.75;;;13.70;99.90;;;;;;4993316;28;20630;-63
2022/05/11 01:09:05;;;;;;;7.80;4.55;;;13.60;99.90;;;;;;4992950;28;20038;-63
2022/05/11 01:11:36;;;;;;;16.13;5.18;;;13.60;99.90;;;;;;4992341;28;20045;-63
2022/05/11 01:14:06;;;;;;;8.60;4.22;;;13.60;99.90;;;;;;4992418;28;20049;-63
2022/05/11 01:16:35;;;;;;;6.88;4.07;;;13.50;99.90;;;;;;4993285;28;20046;-63
2022/05/11 01:19:04;;;;;;;7.40;4.88;;;13.40;99.90;;;;;;4993003;28;20054;-64
2022/05/11 01:21:43;;;;;;;6.05;4.90;;;13.40;99.90;;;;;;4993698;28;20053;-62
2022/05/11 01:24:33;;;;;;;4.97;4.47;;;13.30;99.90;;;;;;4993351;28;20694;-64
2022/05/11 01:27:20;;;;;;;5.55;4.45;;;13.30;99.90;;;;;;4993069;28;20550;-63
2022/05/11 01:29:47;;;;;;;6.25;4.97;;;13.30;99.90;;;;;;4992674;28;20065;-63
2022/05/11 01:32:14;;;;;;;;;;;13.20;99.90;;;;;;4993757;28;20074;-63
2022/05/11 01:34:41;;;;;;;7.28;5.20;;;13.30;99.90;;;;;;4993326;28;20015;-63
2022/05/11 01:37:08;;;;;;;4.72;4.25;;;13.30;99.90;;;;;;4992920;28;20053;-63
2022/05/11 01:39:35;;;;;;;;;;;13.20;99.90;;;;;;4993054;28;20879;-64
2022/05/11 01:42:02;;;;;;;4.53;3.65;;;13.20;99.90;;;;;;4974558;28;20444;-63
2022/05/11 01:44:29;;;;;;;;;;;13.20;99.90;;;;;;4987715;28;20116;-63
2022/05/11 01:46:59;;;;;;;5.63;4.13;;;13.20;99.90;;;;;;4994852;28;19925;-64
2022/05/11 01:49:27;;;;;;;5.05;4.35;;;13.20;99.90;;;;;;4996775;28;20053;-63
2022/05/11 01:51:54;;;;;;;5.35;4.00;;;13.10;99.90;;;;;;4996430;28;20092;-63
2022/05/11 01:54:21;;;;;;;5.15;4.60;;;13.10;99.90;;;;;;4996964;28;20042;-63
2022/05/11 01:56:48;;;;;;;;;;;13.10;99.90;;;;;;4996303;28;20052;-63
2022/05/11 01:59:15;;;;;;;5.20;4.70;;;13.00;99.90;;;;;;4991378;28;19936;-63
2022/05/11 02:01:42;;;;;;;6.90;4.75;;;13.00;99.90;;;;;;4977420;28;20121;-63
2022/05/11 02:07:49;;;;;;;4.90;4.32;;;13.00;99.90;;;;;;4976772;28;20046;-63
2022/05/11 02:09:43;;;;;;;8.32;4.78;;;12.90;99.90;;;;;;4976663;28;20042;-63
2022/05/11 02:12:10;;;;;;;5.47;4.57;;;12.90;99.90;;;;;;4982371;28;20065;-64
2022/05/11 02:14:38;;;;;;;5.53;4.63;;;12.80;99.90;;;;;;4994395;28;20033;-63
2022/05/11 02:17:05;;;;;;;5.72;4.55;;;12.80;99.90;;;;;;4995270;28;20072;-64
2022/05/11 02:19:32;;;;;;;6.53;4.30;;;12.80;99.90;;;;;;4995942;28;20053;-63
2022/05/11 02:21:58;;;;;;;;;;;12.80;99.90;;;;;;4996590;28;20072;-64
2022/05/11 02:24:25;;;;;;;7.13;4.43;;;12.70;99.90;;;;;;4995898;28;20265;-64
2022/05/11 02:26:52;;;;;;;6.93;4.25;;;12.80;99.90;;;;;;4995106;28;20045;-63
2022/05/11 02:29:19;;;;;;;5.65;4.95;;;12.70;99.90;;;;;;4994456;28;20049;-63
2022/05/11 02:31:45;;;;;;;;;;;12.70;99.90;;;;;;4996544;28;20046;-63
2022/05/11 02:35:12;;;;;;;5.05;4.55;;;12.70;99.90;;;;;;4996296;28;19925;-64
2022/05/11 02:36:59;;;;;;;5.97;4.38;;;12.70;99.90;;;;;;4994969;28;20053;-63
2022/05/11 02:39:25;;;;;;;6.85;4.30;;;12.60;99.90;;;;;;4995507;28;20487;-64
2022/05/11 02:41:54;;;;;;;8.02;4.40;;;12.60;99.90;;;;;;4977329;28;20050;-64
2022/05/11 02:44:21;;;;;;;7.40;4.22;;;12.60;99.90;;;;;;4988539;28;20045;-63
2022/05/11 02:46:47;;;;;;;10.20;4.72;;;12.60;99.90;;;;;;4994900;28;20046;-63
2022/05/11 02:49:14;;;;;;;4.95;4.18;;;12.60;99.90;;;;;;4995987;28;20046;-63
2022/05/11 02:51:41;;;;;;;6.57;4.63;;;12.60;99.90;;;;;;4996179;28;20129;-63
2022/05/11 02:54:08;;;;;;;4.95;4.35;;;12.60;99.90;;;;;;4995561;28;20809;-63
2022/05/11 02:56:34;;;;;;;;;;;12.60;99.90;;;;;;4996143;28;20499;-63
2022/05/11 02:59:01;;;;;;;5.38;4.35;;;12.50;99.90;;;;;;4991390;28;19929;-64
2022/05/11 03:01:28;;;;;;;5.32;3.88;;;12.50;99.90;;;;;;4987562;28;20296;-63
2022/05/11 03:03:55;;;;;;;5.57;4.25;;;12.50;99.90;;;;;;4994257;28;20665;-63
2022/05/11 03:06:22;;;;;;;;;;;12.50;99.90;;;;;;4996100;28;20048;-64
2022/05/11 03:08:48;;;;;;;5.78;4.63;;;12.50;99.90;;;;;;4994630;28;20471;-63
2022/05/11 03:11:15;;;;;;;8.00;5.85;;;12.40;99.90;;;;;;4995080;28;20050;-63
2022/05/11 03:13:42;;;;;;;;;;;12.40;99.90;;;;;;4997607;28;20618;-63
2022/05/11 03:16:09;;;;;;;6.22;4.20;;;12.40;99.90;;;;;;5003809;28;19987;-63
2022/05/11 03:18:36;;;;;;;5.82;4.55;;;12.30;99.90;;;;;;4994822;28;20827;-63
2022/05/11 03:21:03;;;;;;;6.13;4.63;;;12.30;99.90;;;;;;4994641;28;20045;-63
2022/05/11 03:23:30;;;;;;;5.65;4.57;;;12.30;99.90;;;;;;4995589;28;20050;-63
2022/05/11 03:25:57;;;;;;;4.72;4.22;;;12.30;99.90;;;;;;4995087;28;20045;-63
2022/05/11 03:28:24;;;;;;;;;;;12.20;99.90;;;;;;4994595;28;20789;-64
2022/05/11 03:30:51;;;;;;;10.83;4.57;;;12.20;99.90;;;;;;4995091;28;20016;-63
2022/05/11 03:36:04;;;;;;;6.70;4.93;;;12.10;99.90;;;;;;4995143;28;20042;-63
2022/05/11 03:38:31;;;;;;;9.80;4.80;;;12.10;99.90;;;;;;4993942;28;20119;-63
2022/05/11 03:40:59;;;;;;;;;;;12.10;99.90;;;;;;4984784;28;20050;-63
2022/05/11 03:43:25;;;;;;;5.53;4.32;;;12.10;99.90;;;;;;4979850;28;19925;-63
2022/05/11 03:45:52;;;;;;;;;;;12.10;99.90;;;;;;4995474;28;20092;-63
2022/05/11 03:48:19;;;;;;;5.30;4.15;;;12.10;99.90;;;;;;4994340;28;19921;-63
2022/05/11 03:50:45;;;;;;;;;;;12.00;99.90;;;;;;4995283;28;20504;-63
2022/05/11 03:53:12;;;;;;;5.40;4.65;;;12.00;99.90;;;;;;4995123;28;19968;-61
2022/05/11 03:55:39;;;;;;;;;;;12.00;99.90;;;;;;5009698;28;20644;-55
2022/05/11 03:58:06;;;;;;;6.00;4.72;;;12.00;99.90;;;;;;4993764;28;20435;-53
2022/05/11 04:00:32;;;;;;;;;;;12.10;99.90;;;;;;4979197;28;20050;-55
2022/05/11 04:02:59;;;;;;;6.97;5.13;;;12.10;99.90;;;;;;4975044;28;19957;-56
2022/05/11 04:05:27;;;;;;;7.05;4.22;;;12.10;99.90;;;;;;4974713;28;20432;-52
2022/05/11 04:07:54;;;;;;;5.15;4.15;;;12.10;99.90;;;;;;4973284;28;20049;-54
2022/05/11 04:10:21;;;;;;;10.32;5.40;;;12.10;99.90;;;;;;4974436;28;20132;-53
2022/05/11 04:12:48;;;;;;;3.70;3.40;;;12.10;99.90;;;;;;4974508;28;20050;-54
2022/05/11 04:15:15;;;;;;;;;;;12.10;99.90;;;;;;4985618;28;20135;-54
2022/05/11 04:17:43;;;;;;;8.10;4.55;;;12.10;99.90;;;;;;4992503;28;19971;-53
2022/05/11 04:20:15;;;;;;;5.80;4.80;;;12.10;99.90;;;;;;4994197;28;20575;-54
2022/05/11 04:22:42;;;;;;;10.38;4.82;;;12.10;99.90;;;;;;4994410;28;20042;-54
2022/05/11 04:25:10;;;;;;;5.93;3.97;;;12.10;99.90;;;;;;4994194;28;20046;-56
2022/05/11 04:27:37;;;;;;;6.25;5.10;;;12.10;99.90;;;;;;4993022;28;20046;-54
2022/05/11 04:30:04;;;;;;;;;;;12.10;99.90;;;;;;4994051;28;20049;-55
2022/05/11 04:32:31;;;;;;;6.47;4.95;;;12.20;99.90;;;;;;4992549;28;19921;-54
2022/05/11 04:34:58;;;;;;;4.47;4.07;;;12.20;99.90;;;;;;4993393;28;20073;-51
2022/05/11 04:37:25;;;;;;;;;;;12.30;99.90;;;;;;4993972;28;20468;-54
2022/05/11 04:39:51;;;;;;;12.90;5.25;;;12.30;99.90;;;;;;4991776;28;20473;-55
2022/05/11 04:42:18;;;;;;;;;;;12.30;99.90;;;;;;4975328;28;20687;-52
2022/05/11 04:44:45;;;;;;;6.78;4.53;;;12.40;99.90;;;;;;4990033;28;20077;-55
2022/05/11 04:47:16;;;;;;;5.57;3.92;;;12.50;99.90;;;;;;4992567;28;20609;-55
2022/05/11 04:49:43;;;;;;;5.03;4.53;;;12.60;99.90;;;;;;4993940;28;20051;-55
2022/05/11 04:52:16;;;;;;;5.07;4.10;;;12.60;99.90;;;;;;4994064;28;20042;-55
2022/05/11 04:54:48;;;;;;;6.05;4.25;;;12.70;99.90;;;;;;4994160;28;20279;-53
2022/05/11 04:57:19;;;;;;;6.30;4.47;;;12.70;99.90;;;;;;4992893;28;20551;-54
2022/05/11 04:59:46;;;;;;;6.20;4.70;;;12.80;99.90;;;;;;4984740;28;20050;-54
2022/05/11 05:02:16;;;;;;;6.22;4.70;;;12.80;99.90;;;;;;4974291;28;20050;-55
2022/05/11 05:04:44;;;;;;;9.25;4.68;;;12.90;99.90;;;;;;4972833;28;20054;-57
2022/05/11 05:07:11;;;;;;;6.18;4.63;;;12.90;99.90;;;;;;4973505;28;20038;-55
2022/05/11 05:09:38;;;;;;;;;;;13.00;99.90;;;;;;4974526;28;20054;-51
2022/05/11 05:12:05;;;;;;;5.03;4.22;;;13.00;99.90;;;;;;4974392;28;19972;-59
2022/05/11 05:14:32;;;;;;;5.90;4.82;;;13.10;99.90;;;;;;4974536;28;20061;-56
2022/05/11 05:17:08;;;;;;;4.47;4.00;;;13.20;99.90;;;;;;4991066;28;20137;-57
2022/05/11 05:19:37;;;;;;;10.63;6.32;;;13.30;99.90;;;;;;4993844;28;20926;-56
2022/05/11 05:22:04;;;;;;;6.20;4.53;;;13.40;99.90;;;;;;4997526;28;20062;-58
2022/05/11 05:24:31;;;;;;;6.00;4.90;;;13.50;99.90;;;;;;4997246;28;20042;-59
2022/05/11 05:27:00;;;;;;;5.93;4.75;;;13.60;99.90;;;;;;4995991;28;20049;-57
2022/05/11 05:32:13;;;;;;;8.52;4.45;;;13.70;99.90;;;;;;4996832;28;20041;-59
2022/05/11 05:34:43;;;;;;;10.02;4.38;;;13.80;99.90;;;;;;4997698;28;20813;-60
2022/05/11 05:37:14;;;;;;;5.53;4.50;;;13.80;99.90;;;;;;4996324;28;20058;-56
2022/05/11 05:39:42;;;;;;;6.90;4.97;;;13.90;99.90;;;;;;5005120;28;20108;-57
2022/05/11 05:42:19;;;;;;;4.72;4.22;;;14.00;99.90;;;;;;4977489;28;20045;-55
2022/05/11 05:44:47;;;;;;;6.82;4.20;;;14.10;99.90;;;;;;4993062;28;20081;-62
2022/05/11 05:47:15;;;;;;;11.25;5.03;;;14.20;99.90;;;;;;4994988;28;20069;-55
2022/05/11 05:49:43;;;;;;;4.75;4.18;;;14.20;99.90;;;;;;4997063;28;20608;-60
2022/05/11 05:52:18;;;;;;;7.28;4.70;;;14.30;99.90;;;;;;4997069;28;20472;-54
2022/05/11 05:54:46;;;;;;;9.38;4.50;;;14.40;99.90;;;;;;4999912;28;20615;-55
2022/05/11 05:57:14;;;;;;;5.13;4.03;;;14.50;99.90;;;;;;4999059;28;20478;-55
2022/05/11 05:59:41;;;;;;;5.45;4.75;;;14.60;99.90;;;;;;4996080;28;20603;-55
2022/05/11 06:02:13;;;;;;;7.00;4.75;;;14.70;99.90;;;;;;4996705;28;20108;-56
2022/05/11 06:04:41;;;;;;;5.30;4.00;;;14.80;99.90;;;;;;4996200;28;20679;-57
2022/05/11 06:07:08;;;;;;;6.03;3.92;;;14.90;99.90;;;;;;4996158;28;20058;-57
2022/05/11 06:09:35;;;;;;;5.60;4.65;;;15.00;99.90;;;;;;4995791;28;20056;-54
2022/05/11 06:12:02;;;;;;;;;;;15.10;99.90;;;;;;4996666;28;20550;-50
2022/05/11 06:14:29;;;;;;;5.57;4.40;;;15.20;99.90;;;;;;4996482;28;20033;-52
2022/05/11 06:16:55;;;;;;;;;;;15.30;99.90;;;;;;4994464;28;20582;-52
2022/05/11 06:19:22;;;;;;;6.13;5.00;;;15.50;99.90;;;;;;4994961;28;20003;-53
2022/05/11 06:21:49;;;;;;;5.63;4.00;;;15.50;99.90;;;;;;4996246;28;20393;-51
2022/05/11 06:24:16;;;;;;;;;;;15.70;99.90;;;;;;4996955;28;20042;-53
2022/05/11 06:26:47;;;;;;;50.30;7.35;;;15.80;99.90;;;;;;4995495;28;19925;-54
2022/05/11 06:29:30;;;;;;;9.50;4.53;;;16.00;99.90;;;;;;4996046;28;20150;-53
2022/05/11 06:31:56;;;;;;;7.80;4.82;;;16.10;99.90;;;;;;4995230;28;20045;-52
2022/05/11 06:34:24;;;;;;;7.43;3.95;;;16.20;99.90;;;;;;4995665;28;20049;-53
2022/05/11 06:36:51;;;;;;;5.65;4.35;;;16.40;99.90;;;;;;4995721;28;20041;-53
2022/05/11 06:39:18;;;;;;;;;;;16.50;99.90;;;;;;4995637;28;20054;-54
2022/05/11 06:41:45;;;;;;;4.90;4.05;;;16.60;99.90;;;;;;4979336;28;19932;-52
2022/05/11 06:44:11;;;;;;;;;;;16.80;99.90;;;;;;4987566;28;20046;-52
2022/05/11 06:46:38;;;;;;;5.78;4.40;;;16.90;99.90;;;;;;4994253;28;20788;-54
2022/05/11 06:49:05;;;;;;;6.60;4.40;;;17.10;99.90;;;;;;4995339;28;20049;-53
2022/05/11 06:51:32;;;;;;;;;;;17.20;99.90;;;;;;4995276;28;20045;-52
2022/05/11 06:59:33;;;;;;;4.85;4.05;;;17.60;99.90;;;;;;4988600;28;20126;-49
2022/05/11 07:02:04;;;;;;;7.30;3.50;;;17.80;99.90;;;;;;4975616;28;20051;-51
2022/05/11 07:04:33;;;;;;;6.18;4.25;;;17.90;99.90;;;;;;4975874;28;20127;-52
2022/05/11 07:07:00;;;;;;;7.20;3.80;;;18.10;99.90;;;;;;4974402;28;20116;-54
2022/05/11 07:09:31;;;;;;;7.72;3.72;;;18.30;99.90;;;;;;4975787;28;20101;-55
2022/05/11 07:12:18;;;;;;;7.60;3.70;;;18.50;99.90;;;;;;4975517;28;20042;-53
2022/05/11 07:14:48;;;;;;;4.18;3.25;;;18.60;99.90;;;;;;4975051;28;20122;-56
2022/05/11 07:17:30;;;;;;;5.43;3.65;;;18.80;99.90;;;;;;4990702;28;20041;-59
2022/05/11 07:19:59;;;;;;;3.75;3.35;;;18.90;99.90;;;;;;4991485;28;20049;-56
2022/05/11 07:22:26;;;;;;;6.00;2.90;;;19.10;99.90;;;;;;4995170;28;20139;-55
2022/05/11 07:24:53;;;;;;;4.60;2.92;;;19.20;99.90;;;;;;4994090;28;20583;-54
2022/05/11 07:27:21;;;;;;;8.48;3.38;;;19.40;99.90;;;;;;4994297;28;20708;-56
2022/05/11 07:29:50;;;;;;;8.98;3.53;;;19.60;99.90;;;;;;4994467;28;20048;-55
2022/05/11 07:32:17;;;;;;;3.35;3.00;;;19.80;99.90;;;;;;4995437;28;20567;-56
2022/05/11 07:34:44;;;;;;;3.55;2.63;;;19.90;99.90;;;;;;4994746;28;20041;-57
2022/05/11 07:37:11;;;;;;;3.65;3.10;;;20.10;98.70;;;;;;4993993;28;20797;-57
2022/05/11 07:39:38;;;;;;;5.05;2.45;;;20.20;98.00;;;;;;4994353;28;20503;-55
2022/05/11 07:42:05;;;;;;;6.93;3.25;;;20.40;97.80;;;;;;4974518;28;20160;-56
2022/05/11 07:44:33;;;;;;;3.40;2.38;;;20.60;95.90;;;;;;4988989;28;20147;-59
2022/05/11 07:47:00;;;;;;;7.25;2.55;;;20.70;93.60;;;;;;5008140;28;20239;-56
2022/05/11 07:49:27;;;;;;;2.63;2.42;;;20.90;92.30;;;;;;4994437;28;20049;-56
2022/05/11 07:51:53;;;;;;;5.00;3.08;;;21.00;90.60;;;;;;4993977;28;20678;-57
2022/05/11 07:54:21;;;;;;;3.53;2.75;;;21.10;88.30;;;;;;4993126;28;20077;-58
2022/05/11 07:59:56;;;;;;;2.85;2.58;;;21.40;82.30;;;;;;4987332;28;20042;-59
2022/05/11 08:02:34;;;;;;;4.95;2.63;;;21.70;83.10;;;;;;4974968;28;20058;-57
2022/05/11 08:05:05;;;;;;;7.90;2.75;;;22.40;77.10;;;;;;4974419;28;20046;-55
2022/05/11 08:07:43;;;;;;;8.63;2.80;;;22.80;72.00;;;;;;4973752;28;20160;-58
2022/05/11 08:10:14;;;;;;;3.67;3.33;;;23.20;70.20;;;;;;4974578;28;20046;-58
2022/05/11 08:12:42;;;;;;;3.95;2.47;;;23.60;65.50;;;;;;4974593;28;20052;-58
2022/05/11 08:15:15;;;;;;;6.38;2.83;;;23.80;66.20;;;;;;4954264;28;20049;-59
2022/05/11 08:17:46;;;;;;;6.18;2.85;;;24.10;64.70;;;;;;4946043;28;20049;-60
2022/05/11 08:20:17;;;;;;;3.08;2.42;;;24.20;62.20;;;;;;4944968;28;20168;-58
2022/05/11 08:22:45;;;;;;;3.83;2.30;;;24.40;62.60;;;;;;4962860;28;20117;-59
2022/05/11 08:25:16;;;;;;;3.70;2.72;;;24.50;61.40;;;;;;4962476;28;20295;-55
2022/05/11 08:27:43;;;;;;;3.75;2.88;;;24.50;59.10;;;;;;4939913;28;20984;-58
2022/05/11 08:36:17;;;;;;;2.90;2.38;;;24.40;58.20;;;;;;4939678;28;20944;-60
2022/05/11 08:38:48;;;;;;;5.32;2.47;;;24.60;57.50;;;;;;4939320;28;20780;-58
2022/05/11 08:41:18;;;;;;;4.00;2.42;;;24.80;58.40;;;;;;4929365;28;20469;-56
2022/05/11 08:43:47;;;;;;;5.22;2.70;;;24.90;56.90;;;;;;4953461;28;20863;-57
2022/05/11 08:46:17;;;;;;;3.30;2.58;;;25.00;55.60;;;;;;4960633;28;20315;-58
2022/05/11 08:48:59;;;;;;;3.88;2.67;;;25.00;54.90;;;;;;4957826;28;20602;-58
2022/05/11 08:51:41;;;;;;;7.22;3.22;;;25.10;55.10;;;;;;4935443;28;20823;-59
2022/05/11 08:54:26;;;;;;;10.00;2.97;;;25.30;53.40;;;;;;4951203;28;20139;-58
2022/05/11 08:56:55;;;;;;;4.10;2.70;;;25.50;54.50;;;;;;4954896;28;20161;-57
2022/05/11 08:59:28;;;;;;;6.45;2.85;;;25.60;50.50;;;;;;4943825;28;20745;-56
2022/05/11 09:02:23;;;;;;;9.07;2.20;;;25.70;50.70;;;;;;4942766;28;20042;-57
2022/05/11 09:04:58;;;;;;;2.95;2.28;;;25.80;51.70;;;;;;4931643;28;20045;-58
2022/05/11 09:07:27;;;;;;;7.32;2.95;;;26.00;52.80;;;;;;4943830;28;20371;-59
2022/05/11 09:09:55;;;;;;;4.63;2.42;;;26.20;50.00;;;;;;4941357;28;20042;-61
2022/05/11 09:12:22;;;;;;;3.58;2.40;;;26.40;50.10;;;;;;4944356;28;20157;-60
2022/05/11 09:14:56;;;;;;;2.95;2.65;;;26.40;48.40;;;;;;4945969;28;20882;-61
2022/05/11 09:17:28;;;;;;;2.35;2.10;;;26.40;48.90;;;;;;4930011;28;20722;-62
2022/05/11 09:20:06;;;;;;;2.25;2.00;;;26.40;48.10;;;;;;4944418;28;20572;-57
2022/05/11 09:22:38;;;;;;;5.45;2.38;;;26.60;47.80;;;;;;4927917;28;20674;-60
2022/05/11 09:25:24;;;;;;;10.68;3.75;;;26.60;48.40;;;;;;4962494;28;20295;-61
2022/05/11 09:28:11;;;;;;;30.63;9.23;;;26.80;49.90;;;;;;4936046;28;20470;-61
2022/05/11 09:30:39;;;;;;;6.25;2.45;;;27.20;50.10;;;;;;4957152;28;20374;-60
2022/05/11 09:33:15;;;;;;;12.65;5.28;;;27.40;46.80;;;;;;4941554;28;20038;-62
2022/05/11 09:35:44;;;;;;;7.32;2.72;;;27.60;46.40;;;;;;4955533;28;20207;-60
2022/05/11 09:38:18;;;;;;;7.55;2.85;;;27.70;48.50;;;;;;4959037;28;20111;-59
2022/05/11 09:41:01;;;;;;;2.38;2.00;;;27.90;47.00;;;;;;4938911;28;20116;-60
2022/05/11 09:43:29;;;;;;;3.40;2.17;;;28.00;44.60;;;;;;4926314;28;20140;-60
2022/05/11 09:45:56;;;;;;;2.80;2.47;;;28.10;44.40;;;;;;4946729;28;20078;-59
2022/05/11 09:48:31;;;;;;;2.45;2.25;;;28.10;44.60;;;;;;4960527;28;20038;-57
2022/05/11 09:51:22;;;;;;;4.53;2.15;;;28.10;45.20;;;;;;4939499;28;20373;-59
2022/05/11 09:54:27;;;;;;;3.53;2.30;;;28.10;41.90;;;;;;4947009;28;20187;-60
2022/05/11 09:57:01;;;;;;;6.47;2.45;;;28.10;42.20;;;;;;4935771;28;20314;-59
2022/05/11 09:59:36;;;;;;;3.85;2.50;;;28.10;43.60;;;;;;4946834;28;20540;-59
2022/05/11 10:02:36;;;;;;;5.32;2.55;;;28.10;44.90;;;;;;4921336;28;20559;-63
2022/05/11 10:05:11;;;;;;;4.90;2.15;;;28.00;43.20;;;;;;4954434;28;20042;-63
2022/05/11 10:07:44;;;;;;;6.20;2.42;;;28.10;47.70;;;;;;4939139;28;20103;-62
2022/05/11 10:10:26;;;;;;;3.10;2.35;;;28.30;47.60;;;;;;4939356;28;20091;-62
2022/05/11 10:13:00;;;;;;;2.55;2.20;;;28.40;42.30;;;;;;4908299;28;20046;-63
2022/05/11 10:24:33;;;;;;;3.50;1.90;;;28.30;43.40;;;;;;4924724;28;20061;-62
2022/05/11 10:27:09;;;;;;;5.03;2.25;;;28.30;42.00;;;;;;4923600;28;20339;-62
2022/05/11 10:29:42;;;;;;;5.88;2.45;;;28.20;42.80;;;;;;4934443;28;20324;-62
2022/05/11 10:32:44;;;;;;;4.35;2.10;;;28.20;45.20;;;;;;4935023;28;20286;-63
2022/05/11 10:35:23;;;;;;;3.00;2.13;;;28.40;45.20;;;;;;4938905;28;20054;-62
2022/05/11 10:38:32;;;;;;;6.18;2.42;;;28.50;44.00;;;;;;4918999;28;20641;-58
2022/05/11 10:41:28;;;;;;;3.05;2.45;;;28.70;44.40;;;;;;4953972;28;20371;-58
2022/05/11 10:44:23;;;;;;;2.42;2.22;;;28.90;45.10;;;;;;4941193;28;20112;-58
2022/05/11 10:47:05;;;;;;;3.15;2.42;;;29.00;45.00;;;;;;4942617;28;20046;-57
2022/05/11 10:49:51;;;;;;;4.70;2.35;;;29.10;44.40;;;;;;4924609;28;20851;-57
2022/05/11 10:52:46;;;;;;;8.98;2.58;;;29.10;45.90;;;;;;4943108;28;20210;-57
2022/05/11 10:55:28;;;;;;;6.53;2.30;;;29.10;45.90;;;;;;4936864;28;20394;-60
2022/05/11 10:58:39;;;;;;;2.28;2.05;;;29.10;44.40;;;;;;4941345;28;20199;-60
2022/05/11 11:01:15;;;;;;;3.83;2.25;;;29.20;40.20;;;;;;4918558;28;20304;-60
2022/05/11 11:03:51;;;;;;;5.05;2.58;;;29.00;41.60;;;;;;4939083;28;20038;-59
2022/05/11 11:07:11;;;;;;;6.63;2.53;;;29.10;44.10;;;;;;4934573;28;20670;-61
2022/05/11 11:09:46;;;;;;;9.02;2.60;;;29.20;42.80;;;;;;4937055;28;20045;-58
2022/05/11 11:12:28;;;;;;;2.95;2.17;;;29.30;44.30;;;;;;4933887;28;20599;-56
2022/05/11 11:14:58;;;;;;;3.95;2.33;;;29.40;42.00;;;;;;4934746;28;20049;-60
2022/05/11 11:17:27;;;;;;;4.00;2.30;;;29.50;42.00;;;;;;4922471;28;20135;-60
2022/05/11 11:20:03;;;;;;;4.90;1.95;;;29.70;40.80;;;;;;4936790;28;20137;-59
2022/05/11 11:23:05;;;;;;;9.02;2.35;;;29.80;41.60;;;;;;4933709;28;20042;-60
2022/05/11 11:25:42;;;;;;;2.10;1.90;;;29.80;39.50;;;;;;4943763;28;20049;-60
2022/05/11 11:28:12;;;;;;;5.53;2.70;;;29.80;41.50;;;;;;4937326;28;20984;-59
2022/05/11 11:30:42;;;;;;;3.83;2.15;;;29.70;39.90;;;;;;4955383;28;20323;-60
2022/05/11 11:33:10;;;;;;;4.18;2.05;;;29.60;39.50;;;;;;4955613;28;20547;-60
2022/05/11 11:36:26;;;;;;;5.20;2.08;;;29.60;40.50;;;;;;4940695;28;20365;-61
2022/05/11 11:38:58;;;;;;;3.00;1.77;;;29.70;42.30;;;;;;4955086;28;20799;-59
2022/05/11 11:41:30;;;;;;;4.43;3.00;;;29.80;40.50;;;;;;4923910;28;20042;-61
2022/05/11 11:44:26;;;;;;;2.45;2.10;;;29.80;41.20;;;;;;4928558;28;20132;-60
2022/05/11 11:46:53;;;;;;;4.80;2.00;;;30.00;42.70;;;;;;4955431;28;20042;-60
2022/05/11 11:49:27;;;;;;;2.80;2.03;;;30.20;42.20;;;;;;4954291;28;20673;-60
2022/05/11 11:52:04;;;;;;;6.22;2.38;;;30.20;39.00;;;;;;4954422;28;20223;-62
2022/05/11 11:54:37;;;;;;;4.55;1.83;;;30.20;42.00;;;;;;4961296;28;20164;-60
2022/05/11 11:57:22;;;;;;;5.00;2.38;;;30.20;39.20;;;;;;4959477;28;20354;-60
2022/05/11 11:59:51;;;;;;;4.00;2.33;;;30.30;42.60;;;;;;4928118;28;20157;-60
2022/05/11 12:02:39;;;;;;;6.53;2.28;;;30.30;41.10;;;;;;4905077;28;20483;-61
2022/05/11 12:05:27;;;;;;;2.97;2.05;;;30.30;41.00;;;;;;4919072;28;20057;-60
2022/05/11 12:16:53;;;;;;;6.47;2.15;;;30.70;40.80;;;;;;4924917;28;20046;-59
2022/05/11 12:19:26;;;;;;;3.08;2.03;;;30.80;39.70;;;;;;4941047;28;20583;-60
2022/05/11 12:22:18;;;;;;;10.10;2.28;;;30.90;38.40;;;;;;4938001;28;20517;-59
2022/05/11 12:24:56;;;;;;;1.90;1.65;;;30.80;38.50;;;;;;4930937;28;20312;-61
2022/05/11 12:27:32;;;;;;;2.08;1.88;;;30.70;37.70;;;;;;4918677;28;20559;-59
2022/05/11 12:30:15;;;;;;;3.25;2.10;;;30.70;39.60;;;;;;4919064;28;20042;-60
2022/05/11 12:32:59;;;;;;;2.63;1.63;;;30.60;38.00;;;;;;4916576;28;20046;-61
2022/05/11 12:35:35;;;;;;;3.28;2.40;;;30.70;37.40;;;;;;4920738;28;20194;-59
2022/05/11 12:38:03;;;;;;;5.13;2.17;;;30.90;39.00;;;;;;4933122;28;20157;-59
2022/05/11 12:40:43;;;;;;;2.22;2.00;;;31.00;36.10;;;;;;4943271;28;20240;-60
2022/05/11 12:43:30;;;;;;;5.15;2.08;;;31.00;35.90;;;;;;4908253;28;20560;-60
2022/05/11 12:45:58;;;;;;;;;;;31.00;36.40;;;;;;4941570;28;20057;-60
2022/05/11 12:48:31;;;;;;;4.32;1.80;;;31.00;37.10;;;;;;4937678;28;20081;-60
2022/05/11 12:51:15;;;;;;;5.47;2.30;;;30.90;38.80;;;;;;4935792;28;20099;-59
2022/05/11 12:53:52;;;;;;;2.65;1.90;;;30.90;34.20;;;;;;4941251;28;20983;-59
2022/05/11 12:56:27;;;;;;;3.03;2.15;;;30.80;37.00;;;;;;4937504;28;20152;-60
2022/05/11 12:58:57;;;;;;;6.00;2.22;;;30.70;37.20;;;;;;4938518;28;20057;-59
2022/05/11 13:01:28;;;;;;;5.10;1.63;;;30.80;35.60;;;;;;4939393;28;20045;-60
2022/05/11 13:03:59;;;;;;;2.90;1.77;;;30.70;38.60;;;;;;4953549;28;20049;-60
2022/05/11 13:06:32;;;;;;;4.93;2.40;;;30.70;37.00;;;;;;4939796;28;20582;-60
2022/05/11 13:09:09;;;;;;;6.40;2.40;;;30.70;37.70;;;;;;4936352;28;20901;-60
2022/05/11 13:11:38;;;;;;;4.63;2.30;;;30.70;36.30;;;;;;4921578;28;20041;-59
2022/05/11 13:14:16;;;;;;;3.63;2.38;;;30.80;36.10;;;;;;4953683;28;20042;-59
2022/05/11 13:16:55;;;;;;;4.60;2.20;;;30.90;34.80;;;;;;4936375;28;20065;-60
2022/05/11 13:19:32;;;;;;;2.35;1.85;;;30.90;34.70;;;;;;4936397;28;20591;-59
2022/05/11 13:22:04;;;;;;;7.00;2.25;;;30.80;36.80;;;;;;4955261;28;20330;-59
2022/05/11 13:24:39;;;;;;;4.25;2.00;;;30.80;37.90;;;;;;4937769;28;20053;-59
2022/05/11 13:27:33;;;;;;;6.00;2.03;;;30.70;34.70;;;;;;4938908;28;20203;-60
2022/05/11 13:30:21;;;;;;;4.47;1.88;;;30.70;37.10;;;;;;4935356;28;20046;-59
2022/05/11 13:32:50;;;;;;;4.45;2.08;;;30.70;35.20;;;;;;4940161;28;20034;-59
2022/05/11 13:35:37;;;;;;;2.80;1.90;;;30.70;38.30;;;;;;4940475;28;20332;-60
2022/05/11 13:38:11;;;;;;;;;;;30.70;35.40;;;;;;4951141;28;20168;-60
2022/05/11 13:40:54;;;;;;;2.95;1.50;;;30.70;35.90;;;;;;4950825;28;20260;-60
2022/05/11 13:43:31;;;;;;;4.07;2.00;;;30.80;36.10;;;;;;4938462;28;20209;-60
2022/05/11 13:46:06;;;;;;;3.78;2.10;;;30.90;35.40;;;;;;4940325;28;20354;-60
2022/05/11 13:48:43;;;;;;;3.10;2.03;;;31.00;35.20;;;;;;4938022;28;20606;-60
2022/05/11 13:51:20;;;;;;;3.67;1.77;;;31.00;34.10;;;;;;4942794;28;20772;-60
2022/05/11 13:53:53;;;;;;;9.60;2.35;;;31.10;33.80;;;;;;4942208;28;20548;-60
2022/05/11 13:56:25;;;;;;;5.13;1.90;;;30.90;34.80;;;;;;4955454;28;20042;-59
2022/05/11 13:59:00;;;;;;;5.18;1.83;;;30.80;33.80;;;;;;4939591;28;20198;-59
2022/05/11 14:01:47;;;;;;;1.88;1.77;;;30.70;35.80;;;;;;4938319;28;20345;-57
2022/05/11 14:04:32;;;;;;;8.05;1.95;;;30.80;35.90;;;;;;4942226;28;20395;-57
2022/05/11 14:07:23;;;;;;;3.72;2.58;;;30.90;36.50;;;;;;4939872;28;20385;-56